Time;durP1;ratioP1;P1;durP2;ratioP2;P2;SDS_P1;SDS_P2;PMS_P1;PMS_P2;Temp;Humidity;BMP_temperature;BMP_pressure;BME280_temperature;BME280_humidity;BME280_pressure;Samples;Min_cycle;Max_cycle;Signal;HPM_P1;HPM_P2
2023/09/18 03:38:29;;;;;;;6.90;5.40;;;;;;;15.42;83.09;100267.95;131463;1255;107826;-86
2023/09/18 03:41:36;;;;;;;7.20;4.60;;;;;;;15.38;83.05;100266.77;131195;1256;108602;-84
2023/09/18 03:44:42;;;;;;;5.80;5.20;;;;;;;15.35;83.04;100265.52;130980;1256;107428;-84
2023/09/18 03:47:49;;;;;;;6.00;5.40;;;;;;;15.32;83.12;100264.59;131027;1256;107913;-86
2023/09/18 03:50:56;;;;;;;6.60;5.80;;;;;;;15.26;83.13;100263.95;131045;1264;108611;-85
2023/09/18 03:54:01;;;;;;;6.00;5.00;;;;;;;15.20;83.11;100259.97;131792;1251;107882;-85
2023/09/18 03:57:07;;;;;;;7.10;5.50;;;;;;;15.17;83.17;100255.70;131554;1254;107481;-84
2023/09/18 04:00:14;;;;;;;6.50;5.80;;;;;;;15.15;83.10;100253.27;131885;1251;106393;-86
2023/09/18 04:03:20;;;;;;;7.20;5.60;;;;;;;15.13;83.08;100255.27;132033;1250;108427;-87
2023/09/18 04:06:26;;;;;;;7.80;6.10;;;;;;;15.12;83.06;100251.41;131306;1257;107574;-83
2023/09/18 04:09:31;;;;;;;6.50;5.80;;;;;;;15.08;83.14;100248.46;131472;1255;107786;-84
2023/09/18 04:12:37;;;;;;;6.50;5.90;;;;;;;15.06;82.92;100242.39;131458;1254;106997;-84
2023/09/18 04:15:45;;;;;;;6.60;5.10;;;;;;;15.03;82.90;100240.10;131661;1251;107484;-84
2023/09/18 04:18:51;;;;;;;5.70;5.10;;;;;;;14.98;83.09;100238.20;131589;1256;106826;-84
2023/09/18 04:21:57;;;;;;;5.90;5.10;;;;;;;14.95;83.18;100238.78;131155;1257;105939;-84
2023/09/18 04:25:05;;;;;;;7.30;5.70;;;;;;;14.95;83.29;100237.94;130946;1254;106536;-84
2023/09/18 04:28:11;;;;;;;7.20;6.50;;;;;;;14.96;83.29;100233.09;131125;1253;108449;-84
2023/09/18 04:31:18;;;;;;;6.90;6.20;;;;;;;14.96;83.38;100233.80;131142;1256;107287;-84
2023/09/18 04:34:24;;;;;;;8.80;6.20;;;;;;;14.94;83.33;100229.75;131000;1263;107225;-84
2023/09/18 04:37:30;;;;;;;7.00;5.90;;;;;;;14.92;83.61;100231.88;131179;1252;107186;-84
2023/09/18 04:40:36;;;;;;;6.40;5.70;;;;;;;14.94;83.67;100228.02;131047;1256;108670;-83
2023/09/18 04:43:42;;;;;;;6.10;5.30;;;;;;;14.94;83.47;100222.40;131007;1257;107691;-83
2023/09/18 04:46:48;;;;;;;7.00;5.90;;;;;;;14.96;83.62;100225.98;131071;1259;107572;-84
2023/09/18 04:49:54;;;;;;;7.00;5.70;;;;;;;14.98;83.47;100224.48;131101;1253;106804;-83
2023/09/18 04:53:00;;;;;;;6.50;5.80;;;;;;;15.00;83.51;100225.46;131115;1256;106810;-84
2023/09/18 04:56:06;;;;;;;7.20;6.50;;;;;;;15.00;83.62;100218.32;131229;1256;108307;-83
2023/09/18 04:59:12;;;;;;;8.10;6.30;;;;;;;15.00;83.64;100214.42;131210;1256;106986;-85
2023/09/18 05:02:18;;;;;;;8.10;6.60;;;;;;;15.00;83.87;100218.27;132306;1251;107790;-86
2023/09/18 05:05:24;;;;;;;7.20;6.50;;;;;;;15.04;83.96;100216.48;131439;1255;108397;-86
2023/09/18 05:08:32;;;;;;;10.00;6.90;;;;;;;15.10;84.18;100213.48;131100;1256;107654;-84
2023/09/18 05:11:41;;;;;;;10.20;7.90;;;;;;;15.17;84.44;100209.27;131131;1256;107000;-86
2023/09/18 05:14:47;;;;;;;9.70;7.10;;;;;;;15.25;84.95;100209.55;131221;1251;106920;-88
2023/09/18 05:17:56;;;;;;;9.50;8.10;;;;;;;15.32;84.91;100207.80;131161;1266;109341;-85
2023/09/18 05:21:04;;;;;;;9.70;7.90;;;;;;;15.42;85.37;100206.84;131111;1255;108047;-86
2023/09/18 05:24:10;;;;;;;8.80;7.90;;;;;;;15.53;85.57;100207.21;131088;1251;106466;-85
2023/09/18 05:27:16;;;;;;;9.60;8.20;;;;;;;15.67;85.61;100203.75;131069;1254;108586;-84
2023/09/18 05:30:27;;;;;;;11.00;7.80;;;;;;;15.79;85.68;100201.20;131062;1257;109374;-86
2023/09/18 05:33:33;;;;;;;10.10;8.20;;;;;;;15.90;85.83;100203.42;131229;1260;107716;-88
2023/09/18 05:36:39;;;;;;;9.00;7.90;;;;;;;16.01;86.19;100197.27;131162;1261;106999;-86
2023/09/18 05:39:44;;;;;;;10.30;8.30;;;;;;;16.13;86.35;100197.07;131185;1251;107062;-86
2023/09/18 05:42:50;;;;;;;11.10;8.40;;;;;;;16.25;86.61;100190.32;131131;1257;107596;-86
2023/09/18 05:46:00;;;;;;;9.40;8.40;;;;;;;16.39;86.78;100195.05;131122;1256;107775;-87
2023/09/18 05:49:06;;;;;;;10.50;8.20;;;;;;;16.48;86.82;100199.52;131181;1257;107429;-87
2023/09/18 05:52:11;;;;;;;9.50;8.20;;;;;;;16.57;86.81;100201.05;131170;1256;106691;-86
2023/09/18 05:55:17;;;;;;;11.30;9.30;;;;;;;16.67;87.00;100197.25;131144;1252;106340;-88
2023/09/18 05:58:25;;;;;;;11.10;9.40;;;;;;;16.79;87.19;100197.73;131028;1257;107689;-88
2023/09/18 06:01:31;;;;;;;11.70;10.30;;;;;;;16.89;87.37;100195.63;131054;1255;106913;-87
2023/09/18 06:04:36;;;;;;;12.30;10.20;;;;;;;16.98;87.41;100198.59;131074;1264;107651;-86
2023/09/18 06:07:42;;;;;;;15.00;11.40;;;;;;;17.06;87.66;100191.85;131037;1255;108603;-86
2023/09/18 06:10:48;;;;;;;13.80;12.00;;;;;;;17.17;87.86;100195.15;131492;1251;108660;-86
2023/09/18 06:13:54;;;;;;;14.50;12.80;;;;;;;17.28;87.98;100189.91;131299;1256;107803;-86
2023/09/18 06:17:02;;;;;;;16.50;14.30;;;;;;;17.37;87.95;100189.76;131113;1256;107781;-85
2023/09/18 06:20:10;;;;;;;14.60;11.80;;;;;;;17.46;88.04;100184.41;131142;1256;108571;-89
2023/09/18 06:23:17;;;;;;;12.60;10.30;;;;;;;17.55;88.18;100186.94;131117;1257;107230;-86
2023/09/18 06:26:23;;;;;;;11.90;10.00;;;;;;;17.64;88.16;100179.59;131165;1257;107113;-86
2023/09/18 06:29:29;;;;;;;10.60;9.50;;;;;;;17.75;88.31;100179.30;131064;1256;107956;-87
2023/09/18 06:32:36;;;;;;;11.50;10.30;;;;;;;17.87;88.43;100175.09;131177;1257;107450;-88
2023/09/18 06:35:42;;;;;;;11.00;9.50;;;;;;;17.97;88.31;100168.56;131211;1264;106380;-88
2023/09/18 06:38:49;;;;;;;10.50;8.90;;;;;;;18.06;88.51;100172.49;131236;1257;107673;-87
2023/09/18 06:41:55;;;;;;;10.70;9.50;;;;;;;18.17;88.57;100172.52;131303;1264;108451;-87
2023/09/18 06:45:06;;;;;;;11.20;9.90;;;;;;;18.29;88.55;100167.67;131332;1261;106997;-88
2023/09/18 06:48:13;;;;;;;15.30;12.60;;;;;;;18.41;88.54;100171.92;131410;1260;106803;-87
2023/09/18 06:51:19;;;;;;;15.30;12.80;;;;;;;18.52;88.55;100168.90;131296;1267;107615;-87
2023/09/18 06:54:26;;;;;;;13.60;12.20;;;;;;;18.64;88.56;100171.31;131166;1257;107128;-89
2023/09/18 06:57:31;;;;;;;11.30;10.10;;;;;;;18.74;88.46;100168.77;131080;1256;106806;-87
2023/09/18 07:00:37;;;;;;;11.60;9.70;;;;;;;18.87;88.22;100173.29;131106;1260;105458;-89
2023/09/18 07:03:43;;;;;;;11.20;10.10;;;;;;;18.99;88.17;100173.89;131143;1254;107504;-87
2023/09/18 07:06:49;;;;;;;11.00;8.60;;;;;;;19.10;88.07;100172.84;131102;1264;106740;-87
2023/09/18 07:09:55;;;;;;;11.50;9.10;;;;;;;19.19;88.06;100169.79;131120;1254;106721;-87
2023/09/18 07:13:00;;;;;;;10.20;8.10;;;;;;;19.29;88.10;100167.27;131175;1255;106352;-88
2023/09/18 07:16:07;;;;;;;10.60;9.40;;;;;;;19.42;88.06;100166.92;131108;1255;107705;-88
2023/09/18 07:19:16;;;;;;;11.40;9.90;;;;;;;19.55;87.82;100162.21;131102;1264;107508;-87
2023/09/18 07:22:22;;;;;;;12.00;9.30;;;;;;;19.70;87.50;100166.88;131081;1256;106455;-88
2023/09/18 07:25:28;;;;;;;9.60;8.60;;;;;;;19.84;87.40;100165.33;131098;1257;106693;-88
2023/09/18 07:28:34;;;;;;;9.20;8.20;;;;;;;20.01;87.39;100162.73;131042;1255;108656;-88
2023/09/18 07:31:40;;;;;;;10.50;9.40;;;;;;;20.20;87.16;100153.52;131112;1256;107448;-88
2023/09/18 07:34:47;;;;;;;10.00;9.00;;;;;;;20.38;86.98;100152.02;131145;1255;107176;-87
2023/09/18 07:37:52;;;;;;;10.20;9.20;;;;;;;20.51;86.61;100151.58;131128;1257;106973;-87
2023/09/18 07:40:58;;;;;;;10.40;9.10;;;;;;;20.61;86.50;100149.69;131125;1256;106399;-87
2023/09/18 07:44:04;;;;;;;9.20;8.30;;;;;;;20.68;86.36;100150.27;131083;1255;106448;-87
2023/09/18 07:47:09;;;;;;;9.60;8.60;;;;;;;20.76;86.23;100158.70;131044;1251;107639;-88
2023/09/18 07:50:15;;;;;;;9.40;8.30;;;;;;;20.83;86.07;100158.02;131129;1255;106304;-87
2023/09/18 07:53:20;;;;;;;9.40;8.40;;;;;;;20.94;85.70;100151.95;131101;1251;108549;-87
2023/09/18 07:56:27;;;;;;;10.60;9.10;;;;;;;21.00;85.70;100155.23;131163;1255;106976;-88
2023/09/18 07:59:32;;;;;;;10.00;8.80;;;;;;;21.06;85.31;100148.14;131193;1255;107718;-87
2023/09/18 08:02:38;;;;;;;10.60;9.50;;;;;;;21.11;85.17;100149.16;131196;1264;108638;-88
2023/09/18 08:05:44;;;;;;;9.50;8.30;;;;;;;21.16;85.12;100145.90;131142;1257;108688;-88
2023/09/18 08:08:50;;;;;;;8.70;7.80;;;;;;;21.22;84.86;100142.58;131120;1257;108484;-87
2023/09/18 08:11:56;;;;;;;10.60;8.80;;;;;;;21.29;85.01;100141.97;131135;1256;107653;-87
2023/09/18 08:15:02;;;;;;;9.60;8.50;;;;;;;21.40;84.77;100136.83;131127;1264;107834;-88
2023/09/18 08:18:08;;;;;;;11.10;8.80;;;;;;;21.50;84.27;100135.67;131207;1255;106784;-88
2023/09/18 08:21:14;;;;;;;9.50;8.60;;;;;;;21.59;84.18;100134.40;131105;1257;107917;-88
2023/09/18 08:24:19;;;;;;;10.20;9.20;;;;;;;21.66;83.94;100134.65;131103;1267;106768;-87
2023/09/18 08:27:26;;;;;;;9.60;8.70;;;;;;;21.70;83.59;100134.55;131076;1251;108546;-88
2023/09/18 08:30:32;;;;;;;8.20;7.40;;;;;;;21.76;83.47;100135.40;131062;1251;106831;-87
2023/09/18 08:33:37;;;;;;;11.30;8.60;;;;;;;21.84;83.54;100135.12;131237;1255;106856;-87
2023/09/18 08:36:43;;;;;;;9.90;8.30;;;;;;;21.93;83.31;100128.76;131195;1251;106688;-88
2023/09/18 08:39:49;;;;;;;10.70;9.00;;;;;;;22.04;83.09;100123.97;131146;1258;107768;-88
2023/09/18 08:42:59;;;;;;;9.90;8.90;;;;;;;22.12;82.89;100120.05;131157;1255;106941;-88
2023/09/18 08:46:06;;;;;;;11.60;9.20;;;;;;;22.20;83.08;100124.23;131163;1258;108001;-88
2023/09/18 08:49:14;;;;;;;11.70;9.30;;;;;;;22.25;82.61;100120.95;131165;1255;107670;-88
2023/09/18 08:52:20;;;;;;;9.70;8.40;;;;;;;22.30;82.33;100119.25;131118;1254;107241;-88
2023/09/18 08:55:26;;;;;;;9.90;9.00;;;;;;;22.36;82.35;100116.77;131186;1255;107893;-88
2023/09/18 08:58:35;;;;;;;10.70;9.60;;;;;;;22.45;81.95;100109.64;131135;1255;108416;-88
2023/09/18 09:01:41;;;;;;;10.60;9.50;;;;;;;22.54;81.59;100106.51;131111;1264;108441;-88
2023/09/18 09:04:47;;;;;;;11.60;10.10;;;;;;;22.66;81.80;100102.70;131179;1263;107952;-88
2023/09/18 09:07:52;;;;;;;12.10;10.80;;;;;;;22.76;81.46;100092.70;131141;1255;107710;-88
2023/09/18 09:10:58;;;;;;;12.10;10.50;;;;;;;22.82;81.24;100096.68;131207;1251;107134;-88
2023/09/18 09:14:18;;;;;;;11.50;10.30;;;;;;;22.88;81.11;100089.70;131119;1256;108130;-88
2023/09/18 09:17:24;;;;;;;12.40;11.10;;;;;;;22.95;80.52;100091.58;131147;1256;107944;-88
2023/09/18 09:20:30;;;;;;;11.70;10.50;;;;;;;23.00;80.37;100087.63;131169;1251;107773;-88
2023/09/18 09:23:51;;;;;;;11.30;10.10;;;;;;;23.09;80.42;100088.02;131172;1251;108590;-88
2023/09/18 09:27:03;;;;;;;12.10;10.90;;;;;;;23.19;80.10;100082.81;131122;1251;107140;-88
2023/09/18 09:30:10;;;;;;;11.50;10.40;;;;;;;23.28;79.96;100074.23;131160;1256;106398;-88
2023/09/18 09:33:16;;;;;;;13.20;11.90;;;;;;;23.38;79.42;100072.04;131148;1251;106401;-88
2023/09/18 09:36:22;;;;;;;13.00;11.50;;;;;;;23.45;79.01;100067.81;131149;1251;106686;-88
2023/09/18 09:39:30;;;;;;;14.00;12.60;;;;;;;23.51;78.65;100073.28;131170;1256;106931;-88
2023/09/18 09:42:41;;;;;;;14.10;12.80;;;;;;;23.59;78.31;100070.81;131184;1251;107682;-88
2023/09/18 09:45:48;;;;;;;13.40;12.00;;;;;;;23.63;77.98;100065.81;131222;1251;106761;-88
2023/09/18 09:49:05;;;;;;;12.70;11.50;;;;;;;23.68;78.15;100057.08;131192;1257;107804;-89
2023/09/18 09:52:22;;;;;;;13.70;12.40;;;;;;;23.70;77.56;100055.31;131224;1254;107516;-88
2023/09/18 09:55:30;;;;;;;13.80;12.40;;;;;;;23.74;77.53;100051.02;131114;1251;107911;-88
2023/09/18 09:58:36;;;;;;;13.70;12.40;;;;;;;23.79;76.94;100047.59;131121;1260;106842;-88
2023/09/18 10:01:44;;;;;;;13.50;12.10;;;;;;;23.86;76.37;100051.22;131134;1251;107487;-88
2023/09/18 10:04:51;;;;;;;13.20;11.90;;;;;;;23.90;76.01;100044.44;131245;1251;108756;-89
2023/09/18 10:08:00;;;;;;;13.30;12.00;;;;;;;23.94;75.77;100043.39;131208;1258;107809;-88
2023/09/18 10:11:11;;;;;;;13.60;12.20;;;;;;;23.97;75.63;100038.27;131211;1257;106713;-90
2023/09/18 10:14:19;;;;;;;13.00;11.70;;;;;;;24.03;75.08;100029.98;131234;1251;107205;-88
2023/09/18 10:17:25;;;;;;;14.90;11.60;;;;;;;24.08;74.93;100025.48;131185;1254;108489;-89
2023/09/18 10:20:35;;;;;;;11.20;10.10;;;;;;;24.16;74.46;100028.59;131280;1257;107449;-89
2023/09/18 10:23:54;;;;;;;10.80;9.70;;;;;;;24.21;74.09;100017.94;131158;1251;107710;-90
2023/09/18 10:27:03;;;;;;;10.40;9.30;;;;;;;24.26;73.71;100014.09;131120;1257;107700;-90
2023/09/18 10:30:11;;;;;;;10.70;9.70;;;;;;;24.36;73.37;100015.15;131135;1255;106794;-90
2023/09/18 10:33:18;;;;;;;10.40;9.50;;;;;;;24.45;72.29;100010.71;131204;1254;108731;-91
2023/09/18 10:36:24;;;;;;;10.70;9.70;;;;;;;24.50;72.16;100010.75;131063;1264;108669;-90
2023/09/18 10:39:31;;;;;;;10.60;9.60;;;;;;;24.62;71.64;100013.48;131019;1257;107712;-90
2023/09/18 10:42:40;;;;;;;9.90;8.90;;;;;;;24.75;71.12;100011.91;131159;1257;107695;-90
2023/09/18 10:45:47;;;;;;;9.70;8.80;;;;;;;24.81;70.20;100007.03;131110;1254;106215;-88
2023/09/18 10:48:54;;;;;;;9.80;8.60;;;;;;;24.83;70.56;100002.85;131106;1251;107694;-89
2023/09/18 10:52:00;;;;;;;10.00;8.70;;;;;;;24.91;69.97;99989.14;131081;1251;107094;-88
2023/09/18 10:55:07;;;;;;;10.20;9.00;;;;;;;25.00;69.69;99984.60;131162;1251;107654;-88
2023/09/18 10:58:24;;;;;;;10.00;9.00;;;;;;;25.02;69.27;99979.98;131166;1251;107108;-88
2023/09/18 11:01:32;;;;;;;9.50;8.60;;;;;;;25.00;69.05;99975.20;131041;1257;108043;-89
2023/09/18 11:04:38;;;;;;;9.60;8.50;;;;;;;25.05;68.75;99970.64;130998;1256;231690;-88
2023/09/18 11:07:43;;;;;;;9.90;8.90;;;;;;;25.13;67.88;99968.46;131058;1250;108618;-89
2023/09/18 11:11:04;;;;;;;9.20;8.30;;;;;;;25.22;67.82;99962.58;131079;1254;108317;-88
2023/09/18 11:14:13;;;;;;;10.70;9.30;;;;;;;25.35;67.30;99957.91;131081;1264;107536;-89
2023/09/18 11:17:35;;;;;;;9.60;8.80;;;;;;;25.45;66.54;99957.96;131131;1251;106373;-90
2023/09/18 11:20:41;;;;;;;10.50;9.20;;;;;;;25.48;66.20;99955.80;131184;1257;108291;-90
2023/09/18 11:23:47;;;;;;;10.30;9.30;;;;;;;25.50;66.29;99958.84;131122;1254;108024;-90
2023/09/18 11:26:53;;;;;;;11.20;10.10;;;;;;;25.58;65.85;99957.27;131131;1257;107220;-88
2023/09/18 11:30:00;;;;;;;11.00;10.00;;;;;;;25.67;65.04;99954.44;131105;1257;106023;-90
2023/09/18 11:33:08;;;;;;;11.10;9.90;;;;;;;25.69;64.53;99950.58;131117;1252;108450;-90
2023/09/18 11:36:30;;;;;;;10.80;9.90;;;;;;;25.69;64.20;99951.56;131077;1255;107417;-90
2023/09/18 11:39:38;;;;;;;10.70;9.80;;;;;;;25.74;64.00;99951.92;131101;1254;106831;-89
2023/09/18 11:43:23;;;;;;;11.00;10.00;;;;;;;25.82;63.31;99945.11;131170;1257;107548;-89
2023/09/18 11:46:30;;;;;;;11.40;10.40;;;;;;;25.87;62.40;99941.09;131122;1254;107441;-89
2023/09/18 11:49:38;;;;;;;11.90;10.80;;;;;;;25.92;62.25;99941.43;131215;1250;107188;-89
2023/09/18 11:52:45;;;;;;;12.50;10.20;;;;;;;25.98;62.60;99943.71;131104;1254;107716;-88
2023/09/18 11:55:51;;;;;;;11.70;10.60;;;;;;;26.02;62.01;99941.67;131265;1264;106524;-88
2023/09/18 11:58:56;;;;;;;11.30;10.30;;;;;;;26.06;61.56;99940.77;131096;1251;108554;-88
2023/09/18 12:02:05;;;;;;;11.40;10.40;;;;;;;26.02;61.39;99940.95;131155;1264;107927;-88
2023/09/18 12:05:15;;;;;;;10.90;9.90;;;;;;;25.96;60.76;99937.97;131100;1255;107991;-88
2023/09/18 12:08:20;;;;;;;11.20;10.20;;;;;;;26.00;60.51;99940.52;131144;1256;106665;-88
2023/09/18 12:11:26;;;;;;;11.60;10.40;;;;;;;26.07;59.78;99939.24;131127;1254;108714;-89
2023/09/18 12:14:33;;;;;;;10.70;9.70;;;;;;;26.07;59.98;99932.63;131093;1251;107499;-89
2023/09/18 12:17:39;;;;;;;16.30;11.50;;;;;;;26.00;59.85;99930.06;131002;1255;108403;-89
2023/09/18 12:20:51;;;;;;;11.10;10.00;;;;;;;25.97;59.83;99932.30;131156;1254;108507;-89
2023/09/18 12:23:57;;;;;;;11.20;10.10;;;;;;;26.02;59.67;99925.05;130983;1254;106821;-88
2023/09/18 12:27:04;;;;;;;10.60;9.60;;;;;;;26.06;58.98;99925.23;131138;1252;106846;-88
2023/09/18 12:30:12;;;;;;;10.00;9.10;;;;;;;26.07;57.76;99927.48;131115;1256;106882;-89
2023/09/18 12:33:20;;;;;;;10.30;9.30;;;;;;;25.98;57.85;99926.02;131141;1254;108777;-89
2023/09/18 12:36:26;;;;;;;9.60;8.70;;;;;;;25.95;57.94;99918.49;130998;1256;108362;-89
2023/09/18 12:39:35;;;;;;;12.80;9.60;;;;;;;26.00;57.92;99909.67;131045;1254;106465;-89
2023/09/18 12:42:41;;;;;;;10.60;9.60;;;;;;;26.10;56.98;99908.69;131095;1264;106516;-90
2023/09/18 12:45:47;;;;;;;10.20;9.30;;;;;;;26.16;56.98;99913.27;131183;1250;108439;-90
2023/09/18 12:48:53;;;;;;;10.90;9.90;;;;;;;26.17;56.60;99909.60;131100;1250;107654;-90
2023/09/18 12:52:00;;;;;;;9.90;9.10;;;;;;;26.17;56.76;99902.49;131131;1254;107604;-90
2023/09/18 12:55:06;;;;;;;10.80;9.80;;;;;;;26.13;56.99;99896.90;131120;1254;108776;-90
2023/09/18 12:58:14;;;;;;;10.50;9.40;;;;;;;26.08;56.80;99886.48;131063;1256;107665;-88
2023/09/18 13:01:21;;;;;;;10.90;9.80;;;;;;;26.05;56.49;99885.33;131104;1253;108446;-88
2023/09/18 13:04:27;;;;;;;12.10;11.00;;;;;;;25.97;56.35;99882.26;131106;1251;106892;-88
2023/09/18 13:07:44;;;;;;;11.60;10.50;;;;;;;25.89;55.99;99877.59;131083;1251;107440;-88
2023/09/18 13:10:52;;;;;;;11.20;10.20;;;;;;;25.84;56.10;99877.17;131072;1250;107819;-88
2023/09/18 13:14:01;;;;;;;10.90;9.90;;;;;;;25.86;55.76;99873.79;131096;1257;107841;-88
2023/09/18 13:17:06;;;;;;;10.70;9.70;;;;;;;25.84;55.48;99868.70;131073;1255;106995;-90
2023/09/18 13:20:20;;;;;;;11.00;9.60;;;;;;;25.78;55.38;99866.58;131120;1254;107483;-90
2023/09/18 13:23:32;;;;;;;11.10;10.10;;;;;;;25.75;54.98;99860.11;131012;1266;108271;-89
2023/09/18 13:26:38;;;;;;;12.60;11.40;;;;;;;25.66;54.91;99854.38;131071;1255;106349;-90
2023/09/18 13:29:43;;;;;;;13.30;12.00;;;;;;;25.65;55.14;99851.27;131111;1251;107885;-90
2023/09/18 13:32:50;;;;;;;12.00;10.90;;;;;;;25.67;54.80;99846.89;131109;1257;107921;-89
2023/09/18 13:35:56;;;;;;;12.30;11.20;;;;;;;25.61;54.82;99844.89;131180;1256;106635;-89
2023/09/18 13:39:02;;;;;;;11.40;10.30;;;;;;;25.54;54.63;99843.03;131041;1254;106447;-88
2023/09/18 13:42:08;;;;;;;12.30;10.70;;;;;;;25.51;54.71;99840.07;131105;1254;107767;-88
2023/09/18 13:45:16;;;;;;;12.30;11.10;;;;;;;25.47;54.42;99836.91;131067;1256;108267;-88
2023/09/18 13:48:22;;;;;;;11.10;10.00;;;;;;;25.42;54.52;99834.31;131090;1254;107267;-89
2023/09/18 13:51:28;;;;;;;12.20;10.90;;;;;;;25.43;54.71;99828.85;131201;1250;106664;-89
2023/09/18 13:54:33;;;;;;;12.10;11.00;;;;;;;25.45;54.51;99826.80;131107;1256;108647;-89
2023/09/18 13:57:41;;;;;;;11.20;10.20;;;;;;;25.51;54.51;99823.45;131948;1251;107095;-91
2023/09/18 14:00:48;;;;;;;11.80;10.80;;;;;;;25.60;54.29;99822.25;131774;1250;107968;-90
2023/09/18 14:03:55;;;;;;;11.50;10.50;;;;;;;25.65;53.86;99824.20;131665;1251;107108;-91
2023/09/18 14:07:02;;;;;;;11.50;10.50;;;;;;;25.65;53.52;99822.34;132753;1250;108287;-88
2023/09/18 14:10:11;;;;;;;11.80;10.60;;;;;;;25.62;53.58;99822.88;131608;1251;106836;-89
2023/09/18 14:13:17;;;;;;;10.20;9.30;;;;;;;25.60;53.75;99816.95;131542;1253;106974;-89
2023/09/18 14:16:23;;;;;;;10.30;9.20;;;;;;;25.57;53.73;99817.05;131584;1250;107688;-89
2023/09/18 14:19:28;;;;;;;10.20;9.10;;;;;;;25.54;53.60;99813.86;131242;1254;107605;-88
2023/09/18 14:22:34;;;;;;;9.90;9.00;;;;;;;25.48;53.61;99804.74;131111;1256;107980;-89
2023/09/18 14:25:41;;;;;;;9.80;8.80;;;;;;;25.41;53.40;99802.29;131157;1254;107775;-88
2023/09/18 14:28:46;;;;;;;9.70;9.80;;;;;;;25.37;53.59;99794.07;131057;1254;106540;-88
2023/09/18 14:31:52;;;;;;;11.60;10.50;;;;;;;25.33;53.61;99792.23;131085;1251;107907;-88
2023/09/18 14:35:01;;;;;;;11.30;10.30;;;;;;;25.29;53.24;99796.80;131692;1256;106632;-88
2023/09/18 14:38:06;;;;;;;10.80;9.40;;;;;;;25.27;53.22;99795.54;131805;1254;108674;-87
2023/09/18 14:41:12;;;;;;;10.70;9.00;;;;;;;25.24;53.08;99792.67;131481;1253;107744;-87
2023/09/18 14:44:18;;;;;;;9.50;8.70;;;;;;;25.22;52.82;99788.37;131149;1254;108638;-86
2023/09/18 14:47:24;;;;;;;11.40;10.30;;;;;;;25.18;53.02;99786.64;131665;1250;106487;-88
2023/09/18 14:50:29;;;;;;;12.60;11.30;;;;;;;25.11;52.66;99779.82;132029;1251;108527;-88
2023/09/18 14:53:35;;;;;;;12.40;10.80;;;;;;;25.05;52.63;99775.28;131307;1255;107999;-88
2023/09/18 14:56:41;;;;;;;11.80;10.30;;;;;;;25.01;52.56;99773.02;131734;1250;106833;-89
2023/09/18 14:59:47;;;;;;;10.10;9.20;;;;;;;24.96;52.42;99767.13;132014;1254;107531;-91
2023/09/18 15:02:53;;;;;;;9.90;8.90;;;;;;;24.91;52.40;99773.36;131363;1254;107551;-89
2023/09/18 15:05:59;;;;;;;9.00;8.20;;;;;;;24.84;52.36;99766.21;131128;1254;108588;-89
2023/09/18 15:09:07;;;;;;;9.20;8.30;;;;;;;24.77;52.38;99764.02;131279;1250;108271;-90
2023/09/18 15:12:13;;;;;;;9.00;8.20;;;;;;;24.72;52.36;99760.70;131424;1251;107246;-90
2023/09/18 15:15:18;;;;;;;9.10;8.10;;;;;;;24.67;52.32;99763.73;131229;1251;107069;-90
2023/09/18 15:18:28;;;;;;;9.00;8.00;;;;;;;24.66;52.36;99762.93;131262;1251;108118;-88
2023/09/18 15:21:34;;;;;;;8.70;7.90;;;;;;;24.64;52.21;99766.18;131655;1250;108174;-88
2023/09/18 15:24:40;;;;;;;9.00;8.20;;;;;;;24.62;52.37;99761.75;131397;1254;107120;-88
2023/09/18 15:27:46;;;;;;;8.80;7.90;;;;;;;24.58;52.19;99764.77;131355;1251;107696;-89
2023/09/18 15:30:52;;;;;;;10.60;9.40;;;;;;;24.54;52.29;99762.66;131433;1257;106664;-87
2023/09/18 15:33:58;;;;;;;9.50;8.60;;;;;;;24.50;52.41;99756.92;131244;1254;107817;-87
2023/09/18 15:37:05;;;;;;;9.40;8.40;;;;;;;24.45;52.48;99754.30;131251;1251;107455;-88
2023/09/18 15:40:13;;;;;;;9.80;8.80;;;;;;;24.41;52.56;99749.56;131800;1250;106546;-89
2023/09/18 15:43:18;;;;;;;9.80;8.80;;;;;;;24.37;52.54;99748.33;131516;1254;108472;-90
2023/09/18 15:46:24;;;;;;;9.90;8.90;;;;;;;24.30;52.64;99740.45;131509;1253;106604;-89
2023/09/18 15:49:32;;;;;;;10.40;8.70;;;;;;;24.24;52.62;99741.86;131608;1254;107758;-89
2023/09/18 15:52:38;;;;;;;16.40;10.40;;;;;;;24.17;52.84;99739.60;131518;1254;108016;-89
2023/09/18 15:55:44;;;;;;;10.60;9.50;;;;;;;24.09;52.76;99739.40;131353;1251;107739;-88
2023/09/18 15:58:49;;;;;;;10.60;9.50;;;;;;;24.03;52.87;99737.75;131372;1254;107640;-91
2023/09/18 16:01:55;;;;;;;10.20;9.20;;;;;;;23.96;53.03;99731.75;131431;1251;107705;-87
2023/09/18 16:05:04;;;;;;;10.40;9.30;;;;;;;23.91;53.07;99724.00;131615;1251;108713;-89
2023/09/18 16:08:10;;;;;;;12.20;10.00;;;;;;;23.86;53.14;99720.33;131234;1250;108627;-87
2023/09/18 16:11:15;;;;;;;11.00;8.90;;;;;;;23.79;53.25;99713.54;131274;1251;107914;-88
2023/09/18 16:14:21;;;;;;;10.20;9.20;;;;;;;23.73;53.18;99706.19;131233;1250;106568;-89
2023/09/18 16:17:26;;;;;;;9.80;8.90;;;;;;;23.65;53.37;99703.97;131288;1254;106650;-90
2023/09/18 16:20:33;;;;;;;11.70;9.80;;;;;;;23.56;53.48;99705.77;131321;1253;107223;-87
2023/09/18 16:23:38;;;;;;;10.10;9.20;;;;;;;23.47;53.73;99704.98;131244;1252;106738;-86
2023/09/18 16:26:44;;;;;;;10.30;9.00;;;;;;;23.38;53.92;99703.39;131169;1256;108592;-86
2023/09/18 16:29:50;;;;;;;9.90;9.00;;;;;;;23.28;54.12;99700.30;131124;1251;106357;-86
2023/09/18 16:32:55;;;;;;;10.30;9.30;;;;;;;23.17;54.09;99698.90;131168;1250;108194;-89
2023/09/18 16:36:03;;;;;;;10.40;9.30;;;;;;;23.07;54.39;99697.82;131330;1250;107355;-87
2023/09/18 16:39:14;;;;;;;10.80;9.70;;;;;;;22.96;54.35;99700.30;131181;1254;106654;-86
2023/09/18 16:42:21;;;;;;;9.80;8.90;;;;;;;22.84;54.64;99696.04;131177;1257;108635;-87
2023/09/18 16:45:30;;;;;;;11.50;10.30;;;;;;;22.73;54.78;99695.14;131238;1256;107671;-86
2023/09/18 16:48:38;;;;;;;11.10;10.00;;;;;;;22.62;55.16;99701.48;131205;1254;107798;-86
2023/09/18 16:51:46;;;;;;;11.50;10.30;;;;;;;22.50;55.38;99692.69;131203;1255;107840;-86
2023/09/18 16:54:52;;;;;;;11.40;9.60;;;;;;;22.38;55.53;99689.98;131185;1256;106614;-87
2023/09/18 16:57:59;;;;;;;10.60;9.50;;;;;;;22.28;55.87;99690.35;131448;1255;105913;-87
2023/09/18 17:01:05;;;;;;;10.10;9.10;;;;;;;22.17;56.14;99686.92;131206;1254;106602;-88
2023/09/18 17:04:13;;;;;;;10.10;9.10;;;;;;;22.08;56.22;99681.03;132066;1250;108805;-90
2023/09/18 17:07:19;;;;;;;11.40;10.40;;;;;;;21.98;56.35;99679.81;131643;1254;107601;-88
2023/09/18 17:10:25;;;;;;;10.80;9.80;;;;;;;21.89;56.76;99676.88;131560;1256;106911;-89
2023/09/18 17:13:30;;;;;;;10.90;9.30;;;;;;;21.79;56.94;99680.42;131420;1254;108813;-87
2023/09/18 17:16:36;;;;;;;10.90;9.70;;;;;;;21.69;57.25;99685.56;131223;1255;106784;-87
2023/09/18 17:19:43;;;;;;;10.80;9.70;;;;;;;21.59;57.66;99686.47;131160;1255;107714;-88
2023/09/18 17:22:48;;;;;;;10.80;9.60;;;;;;;21.47;57.87;99684.70;131123;1251;107067;-88
2023/09/18 17:25:54;;;;;;;11.40;10.20;;;;;;;21.36;58.10;99687.59;131106;1250;107392;-90
2023/09/18 17:29:00;;;;;;;11.80;10.70;;;;;;;21.26;58.45;99685.89;131166;1254;107665;-88
2023/09/18 17:32:06;;;;;;;12.70;10.90;;;;;;;21.16;58.64;99685.17;131102;1254;107727;-88
2023/09/18 17:35:13;;;;;;;11.70;10.50;;;;;;;21.06;58.91;99686.20;131244;1250;106670;-87
2023/09/18 17:38:19;;;;;;;11.70;10.40;;;;;;;20.97;59.12;99686.64;131547;1251;107837;-88
2023/09/18 17:41:25;;;;;;;12.30;10.80;;;;;;;20.86;59.43;99680.70;131418;1250;107463;-86